Time;durP1;ratioP1;P1;durP2;ratioP2;P2;SDS_P1;SDS_P2;PMS_P1;PMS_P2;Temp;Humidity;BMP_temperature;BMP_pressure;BME280_temperature;BME280_humidity;BME280_pressure;Samples;Min_cycle;Max_cycle;Signal;HPM_P1;HPM_P2
2022/05/30 00:00:35;;;;;;;6.35;1.80;;;8.70;99.90;;;;;;5017991;28;20047;-90
2022/05/30 00:03:01;;;;;;;4.32;1.80;;;8.50;99.90;;;;;;5018280;28;20049;-90
2022/05/30 00:05:29;;;;;;;4.47;1.83;;;8.50;99.90;;;;;;5017386;28;20061;-90
2022/05/30 00:07:55;;;;;;;7.50;1.95;;;10.10;99.90;;;;;;5018607;28;20140;-90
2022/05/30 00:10:26;;;;;;;13.05;2.30;;;8.40;99.90;;;;;;5017771;28;20212;-91
2022/05/30 00:12:51;;;;;;;7.10;2.28;;;8.40;99.90;;;;;;5035218;28;20131;-90
2022/05/30 00:15:19;;;;;;;4.63;1.65;;;9.30;99.90;;;;;;5017463;28;20135;-90
2022/05/30 00:17:45;;;;;;;5.65;1.90;;;8.30;99.90;;;;;;5017909;28;20087;-90
2022/05/30 00:20:11;;;;;;;5.95;1.77;;;9.90;99.90;;;;;;5001339;28;20057;-90
2022/05/30 00:22:37;;;;;;;8.18;2.38;;;8.20;99.90;;;;;;5017959;28;20405;-90
2022/05/30 00:25:12;;;;;;;6.03;1.98;;;8.00;99.90;;;;;;5017681;28;20049;-91
2022/05/30 00:27:40;;;;;;;7.13;2.28;;;7.50;99.90;;;;;;5017996;28;20052;-91
2022/05/30 00:30:14;;;;;;;9.90;2.28;;;8.00;99.90;;;;;;5034387;28;20064;-89
2022/05/30 00:32:40;;;;;;;10.35;2.83;;;7.80;99.90;;;;;;5017703;28;20052;-90
2022/05/30 00:35:06;;;;;;;9.50;2.30;;;7.70;99.90;;;;;;5017698;28;20053;-90
2022/05/30 00:37:32;;;;;;;9.05;2.53;;;7.60;99.90;;;;;;5000533;28;20515;-90
2022/05/30 00:39:58;;;;;;;7.20;2.28;;;7.60;99.90;;;;;;5017514;28;20053;-89
2022/05/30 00:42:24;;;;;;;9.18;2.58;;;7.50;99.90;;;;;;5017018;28;20059;-90
2022/05/30 00:44:50;;;;;;;8.70;2.72;;;7.60;99.90;;;;;;5033858;28;20044;-90
2022/05/30 00:47:25;;;;;;;12.68;2.80;;;8.20;99.90;;;;;;5030011;28;20048;-91
2022/05/30 00:49:51;;;;;;;13.75;3.47;;;7.70;99.90;;;;;;5032477;28;20538;-91
2022/05/30 00:52:24;;;;;;;8.77;3.63;;;7.80;99.90;;;;;;5032209;28;20049;-90
2022/05/30 00:55:01;;;;;;;10.40;2.78;;;7.50;99.90;;;;;;5034268;28;20052;-91
2022/05/30 00:57:29;;;;;;;13.18;3.20;;;7.40;99.90;;;;;;5026818;28;20573;-91
2022/05/30 01:00:14;;;;;;;9.45;2.80;;;7.30;99.90;;;;;;5020099;28;20099;-90
2022/05/30 01:02:40;;;;;;;10.98;2.80;;;7.30;99.90;;;;;;5018582;28;20052;-90
2022/05/30 01:07:53;;;;;;;10.90;2.90;;;7.20;99.90;;;;;;5037570;28;20040;-91
2022/05/30 01:10:20;;;;;;;11.68;2.80;;;7.20;99.90;;;;;;5027579;28;20060;-90
2022/05/30 01:12:52;;;;;;;10.40;3.33;;;7.20;99.90;;;;;;5033733;28;20048;-90
2022/05/30 01:15:22;;;;;;;11.52;3.53;;;7.10;99.90;;;;;;5033313;28;20108;-91
2022/05/30 01:17:58;;;;;;;10.57;2.55;;;7.00;99.90;;;;;;5031800;28;20045;-91
2022/05/30 01:20:49;;;;;;;10.95;2.97;;;6.90;99.90;;;;;;5024469;28;20095;-90
2022/05/30 01:23:31;;;;;;;9.98;2.97;;;6.90;99.90;;;;;;5033979;28;20136;-91
2022/05/30 01:26:21;;;;;;;11.57;3.10;;;6.90;99.90;;;;;;5017578;28;20454;-90
2022/05/30 01:29:00;;;;;;;9.77;3.13;;;6.80;99.90;;;;;;5033588;28;20056;-90
2022/05/30 01:31:31;;;;;;;9.80;3.67;;;6.90;99.90;;;;;;5033754;28;20048;-91
2022/05/30 01:33:57;;;;;;;7.03;3.50;;;6.80;99.90;;;;;;5017525;28;20057;-91
2022/05/30 01:36:24;;;;;;;12.07;3.72;;;8.10;99.90;;;;;;5016617;28;20386;-90
2022/05/30 01:38:50;;;;;;;9.10;2.97;;;8.80;99.90;;;;;;5033822;28;20142;-89
2022/05/30 01:41:16;;;;;;;9.57;3.50;;;8.20;99.90;;;;;;5017156;28;20143;-90
2022/05/30 01:43:42;;;;;;;13.05;3.55;;;7.50;99.90;;;;;;5016771;28;20133;-90
2022/05/30 01:46:10;;;;;;;7.00;3.13;;;6.90;99.90;;;;;;5017236;28;20500;-91
2022/05/30 01:48:41;;;;;;;10.85;3.40;;;8.10;99.90;;;;;;5017767;28;20068;-90
2022/05/30 01:51:07;;;;;;;12.65;3.22;;;7.00;99.90;;;;;;5017258;28;20045;-90
2022/05/30 01:53:32;;;;;;;9.13;3.55;;;6.80;99.90;;;;;;5016541;28;20113;-89
2022/05/30 01:56:02;;;;;;;9.13;3.33;;;8.70;99.90;;;;;;5027619;28;20052;-92
2022/05/30 01:58:28;;;;;;;11.00;3.55;;;8.60;99.90;;;;;;5049497;28;20139;-91
2022/05/30 02:00:53;;;;;;;15.30;4.03;;;7.90;99.90;;;;;;5020864;28;20524;-91
2022/05/30 02:03:19;;;;;;;11.60;3.38;;;7.00;99.90;;;;;;5042055;28;20446;-89
2022/05/30 02:05:45;;;;;;;8.52;3.53;;;7.00;99.90;;;;;;5035911;28;20059;-90
2022/05/30 02:08:14;;;;;;;15.07;3.97;;;8.80;99.90;;;;;;5027621;28;20148;-90
2022/05/30 02:10:40;;;;;;;9.18;3.30;;;8.50;99.90;;;;;;5011530;28;20388;-90
2022/05/30 02:13:06;;;;;;;13.80;4.05;;;7.00;99.90;;;;;;5010837;28;20056;-89
2022/05/30 02:17:00;;;;;;;12.18;3.63;;;7.00;99.90;;;;;;5008268;28;20131;-90
2022/05/30 02:18:20;;;;;;;9.80;3.60;;;7.50;99.90;;;;;;5029119;28;20112;-90
2022/05/30 02:20:51;;;;;;;11.02;3.85;;;7.10;99.90;;;;;;5007963;28;20084;-90
2022/05/30 02:23:17;;;;;;;12.02;3.83;;;7.40;99.90;;;;;;5025697;28;20053;-90
2022/05/30 02:25:44;;;;;;;9.25;3.60;;;7.10;99.90;;;;;;5005733;28;20673;-89
2022/05/30 02:28:09;;;;;;;12.30;3.83;;;7.10;99.90;;;;;;5006231;28;20091;-90
2022/05/30 02:30:35;;;;;;;11.55;4.18;;;7.10;99.90;;;;;;5005282;28;20077;-90
2022/05/30 02:38:32;;;;;;;9.18;3.97;;;8.00;99.90;;;;;;5040937;28;20098;-89
2022/05/30 02:41:01;;;;;;;10.45;3.90;;;6.90;99.90;;;;;;5022143;28;20044;-89
2022/05/30 02:43:26;;;;;;;7.63;3.85;;;6.90;99.90;;;;;;5004432;28;20595;-91
2022/05/30 02:45:55;;;;;;;9.93;3.55;;;6.70;99.90;;;;;;5021053;28;20048;-90
2022/05/30 02:48:21;;;;;;;9.70;3.50;;;6.80;99.90;;;;;;5005438;28;20088;-90
2022/05/30 02:50:47;;;;;;;13.63;3.90;;;6.60;99.90;;;;;;5004799;28;20135;-91
2022/05/30 02:53:12;;;;;;;7.75;3.95;;;7.10;99.90;;;;;;5004972;28;20485;-90
2022/05/30 02:55:38;;;;;;;9.13;3.72;;;7.50;99.90;;;;;;5004244;28;20052;-90
2022/05/30 02:58:04;;;;;;;12.13;3.95;;;6.60;99.90;;;;;;5004058;28;20450;-89
2022/05/30 03:00:30;;;;;;;11.32;4.43;;;6.50;99.90;;;;;;5003572;28;20055;-90
2022/05/30 03:02:56;;;;;;;7.13;3.80;;;8.30;99.90;;;;;;5003954;28;20500;-90
2022/05/30 03:05:21;;;;;;;14.30;4.20;;;5.80;99.90;;;;;;5003559;28;20064;-90
2022/05/30 03:07:47;;;;;;;7.53;4.18;;;7.50;99.90;;;;;;5002674;28;20134;-89
2022/05/30 03:10:13;;;;;;;9.43;3.75;;;6.50;99.90;;;;;;5003318;28;20045;-90
2022/05/30 03:12:39;;;;;;;10.32;3.90;;;8.10;99.90;;;;;;5019164;28;20052;-89
2022/05/30 03:15:07;;;;;;;11.63;4.32;;;8.50;99.90;;;;;;5002514;28;20047;-90
2022/05/30 03:17:36;;;;;;;10.45;4.80;;;6.30;99.90;;;;;;5020086;28;20040;-90
2022/05/30 03:20:01;;;;;;;10.90;4.70;;;7.60;99.90;;;;;;5020842;28;20047;-90
2022/05/30 03:22:33;;;;;;;12.50;4.45;;;6.20;99.90;;;;;;5003355;28;20052;-90
2022/05/30 03:24:59;;;;;;;9.52;4.13;;;6.10;99.90;;;;;;5003924;28;20427;-90
2022/05/30 03:27:25;;;;;;;8.50;4.10;;;6.20;99.90;;;;;;5003318;28;20041;-90
2022/05/30 03:29:50;;;;;;;9.18;4.00;;;7.70;99.90;;;;;;5003118;28;20057;-90
2022/05/30 03:32:16;;;;;;;10.45;4.07;;;6.40;99.90;;;;;;5003622;28;20053;-90
2022/05/30 03:34:42;;;;;;;9.48;4.28;;;6.10;99.90;;;;;;5018756;28;20488;-89
2022/05/30 03:37:08;;;;;;;13.88;5.38;;;6.00;99.90;;;;;;5003095;28;20111;-89
2022/05/30 03:39:33;;;;;;;15.68;5.22;;;6.10;99.90;;;;;;5002498;28;20087;-92
2022/05/30 03:41:59;;;;;;;10.32;4.90;;;6.10;99.90;;;;;;5002965;28;20052;-89
2022/05/30 03:44:25;;;;;;;8.30;4.55;;;6.90;99.90;;;;;;5018821;28;20040;-89
2022/05/30 03:46:50;;;;;;;12.68;5.07;;;6.10;99.90;;;;;;5002993;28;20047;-90
2022/05/30 03:49:16;;;;;;;13.65;4.78;;;8.00;99.90;;;;;;5019211;28;20144;-89
2022/05/30 03:51:44;;;;;;;10.80;4.90;;;7.20;99.90;;;;;;5002065;28;20087;-90
2022/05/30 03:54:10;;;;;;;8.18;4.68;;;6.20;99.90;;;;;;5019248;28;20123;-90
2022/05/30 03:56:36;;;;;;;8.00;4.75;;;6.20;99.90;;;;;;5001612;28;20044;-89
2022/05/30 03:59:05;;;;;;;11.10;5.25;;;8.00;99.90;;;;;;5002627;28;20053;-91
2022/05/30 04:01:31;;;;;;;13.60;4.95;;;6.20;99.90;;;;;;5010952;28;20056;-90
2022/05/30 04:03:56;;;;;;;8.55;4.55;;;6.20;99.90;;;;;;5016772;28;20591;-89
2022/05/30 04:06:22;;;;;;;10.38;5.10;;;7.30;99.90;;;;;;5002549;28;20069;-90
2022/05/30 04:08:48;;;;;;;11.63;4.80;;;4.90;99.90;;;;;;5003690;28;20045;-90
2022/05/30 04:11:14;;;;;;;8.55;4.93;;;4.90;99.90;;;;;;5003442;28;20055;-90
2022/05/30 04:13:40;;;;;;;8.27;4.88;;;7.50;99.90;;;;;;5000865;28;20049;-90
2022/05/30 04:16:09;;;;;;;6.75;4.30;;;8.00;99.90;;;;;;5000017;28;20128;-90
2022/05/30 04:18:38;;;;;;;9.32;4.78;;;8.60;99.90;;;;;;4983745;28;20464;-90
2022/05/30 04:21:08;;;;;;;12.00;6.15;;;6.60;99.90;;;;;;5000715;28;20045;-90
2022/05/30 04:23:37;;;;;;;7.30;4.60;;;6.70;99.90;;;;;;4983782;28;20045;-91
2022/05/30 04:26:04;;;;;;;10.13;4.68;;;8.30;99.90;;;;;;4982151;28;20479;-91
2022/05/30 04:28:30;;;;;;;9.80;4.50;;;6.80;99.90;;;;;;4982998;28;20540;-89
2022/05/30 04:30:56;;;;;;;7.47;4.40;;;6.70;99.90;;;;;;4998892;28;20041;-91
2022/05/30 04:33:21;;;;;;;8.02;4.40;;;7.80;99.90;;;;;;4983103;28;20049;-90
2022/05/30 04:35:47;;;;;;;8.98;4.13;;;6.90;99.90;;;;;;4998193;28;20520;-90
2022/05/30 04:38:19;;;;;;;12.77;4.30;;;7.00;99.90;;;;;;4998447;28;20057;-91
2022/05/30 04:40:49;;;;;;;10.27;4.70;;;7.20;99.90;;;;;;5013147;28;20045;-93
2022/05/30 04:43:18;;;;;;;7.85;4.00;;;7.10;99.90;;;;;;5019172;28;20045;-90
2022/05/30 04:45:43;;;;;;;6.18;3.95;;;8.90;99.90;;;;;;5016898;28;20080;-90
2022/05/30 04:48:11;;;;;;;8.25;4.22;;;9.40;99.90;;;;;;5034848;28;20497;-91
2022/05/30 04:50:37;;;;;;;8.30;4.05;;;7.30;99.90;;;;;;5032649;28;20052;-91
2022/05/30 04:53:03;;;;;;;7.30;4.43;;;7.50;99.90;;;;;;5021133;28;20048;-90
2022/05/30 04:55:28;;;;;;;8.70;4.38;;;6.00;99.90;;;;;;5020011;28;20495;-90
2022/05/30 04:57:54;;;;;;;7.95;3.88;;;7.50;99.90;;;;;;5033871;28;20114;-90
2022/05/30 05:00:23;;;;;;;7.55;3.83;;;7.60;99.90;;;;;;5017883;28;20052;-91
2022/05/30 05:02:51;;;;;;;8.30;4.18;;;7.50;99.90;;;;;;5019746;28;20076;-90
2022/05/30 05:05:17;;;;;;;7.35;4.60;;;7.70;99.90;;;;;;5019074;28;20056;-91
2022/05/30 05:08:08;;;;;;;8.20;3.53;;;7.70;99.90;;;;;;5020329;28;20063;-92
2022/05/30 05:10:47;;;;;;;9.20;3.75;;;7.80;99.90;;;;;;5034502;28;20089;-92
2022/05/30 05:13:15;;;;;;;8.90;3.88;;;8.00;99.90;;;;;;5019382;28;20044;-92
2022/05/30 05:15:44;;;;;;;7.32;3.80;;;7.90;99.90;;;;;;5018737;28;20041;-93
2022/05/30 05:18:12;;;;;;;10.05;3.85;;;7.80;99.90;;;;;;5018326;28;20049;-92
2022/05/30 05:20:41;;;;;;;8.15;3.85;;;7.90;99.90;;;;;;5036752;28;20082;-92
2022/05/30 05:23:11;;;;;;;7.55;3.72;;;8.10;99.90;;;;;;5055548;28;20049;-93
2022/05/30 05:25:38;;;;;;;7.90;3.63;;;8.20;99.90;;;;;;5033355;28;20057;-92
2022/05/30 05:28:04;;;;;;;7.45;3.58;;;8.30;99.90;;;;;;5031912;28;20150;-92
2022/05/30 05:30:41;;;;;;;9.32;3.50;;;8.20;99.90;;;;;;5026842;28;20052;-93
2022/05/30 05:33:07;;;;;;;6.55;3.47;;;8.20;99.90;;;;;;5025070;28;20048;-92
2022/05/30 05:35:36;;;;;;;6.97;3.40;;;8.30;99.90;;;;;;5036485;28;20053;-91
2022/05/30 05:38:03;;;;;;;6.80;3.00;;;8.50;99.90;;;;;;5023118;28;20053;-92
2022/05/30 05:40:36;;;;;;;5.97;3.95;;;8.50;99.90;;;;;;5024530;28;20053;-92
2022/05/30 05:43:04;;;;;;;7.30;2.72;;;7.10;99.90;;;;;;5024760;28;20052;-93
2022/05/30 05:45:33;;;;;;;6.00;3.20;;;9.00;99.90;;;;;;5023604;28;20099;-93
2022/05/30 05:48:01;;;;;;;5.07;2.55;;;9.70;99.90;;;;;;5022876;28;20056;-93
2022/05/30 05:50:32;;;;;;;5.15;2.30;;;10.20;99.90;;;;;;5039639;28;20083;-94
2022/05/30 05:53:00;;;;;;;4.82;2.40;;;10.40;99.90;;;;;;5039903;28;20052;-94
2022/05/30 05:55:43;;;;;;;6.10;2.10;;;10.70;99.90;;;;;;5023021;28;20509;-93
2022/05/30 05:58:12;;;;;;;8.52;2.42;;;10.70;99.90;;;;;;5023945;28;20132;-93
2022/05/30 06:00:40;;;;;;;4.95;1.90;;;10.80;99.90;;;;;;5023017;28;20492;-94
2022/05/30 06:03:06;;;;;;;6.75;2.35;;;11.60;99.90;;;;;;5022634;28;20053;-93
2022/05/30 06:05:33;;;;;;;4.78;1.83;;;12.70;99.90;;;;;;5006237;28;20118;-94
2022/05/30 06:08:03;;;;;;;4.10;1.75;;;11.40;99.90;;;;;;5058837;28;20057;-96
2022/05/30 06:10:34;;;;;;;3.72;1.42;;;12.70;99.90;;;;;;5032309;28;20079;-93
2022/05/30 06:13:20;;;;;;;5.03;1.67;;;12.70;99.90;;;;;;5041624;28;20492;-93
2022/05/30 06:15:49;;;;;;;3.50;1.65;;;13.10;99.90;;;;;;5022761;28;20124;-92
2022/05/30 06:18:22;;;;;;;4.97;1.55;;;13.30;99.90;;;;;;5021988;28;20110;-94
2022/05/30 06:20:50;;;;;;;2.70;1.45;;;13.20;99.90;;;;;;5022175;28;20115;-92
2022/05/30 06:23:26;;;;;;;3.20;1.60;;;13.50;99.90;;;;;;5022625;28;20126;-94
2022/05/30 06:25:57;;;;;;;5.55;1.50;;;14.50;99.90;;;;;;5039921;28;20041;-94
2022/05/30 06:28:26;;;;;;;2.78;1.70;;;15.40;99.90;;;;;;5039678;28;20041;-94
2022/05/30 06:31:04;;;;;;;3.28;1.30;;;15.60;99.90;;;;;;5038117;28;20502;-95
2022/05/30 06:33:30;;;;;;;2.72;1.30;;;15.40;99.90;;;;;;5022177;28;20044;-93
2022/05/30 06:35:56;;;;;;;2.30;1.13;;;16.30;99.90;;;;;;5021966;28;20396;-94
2022/05/30 06:38:22;;;;;;;2.42;1.00;;;15.40;99.90;;;;;;5005856;28;20468;-92
2022/05/30 06:40:48;;;;;;;1.92;1.00;;;15.80;99.90;;;;;;5038181;28;20459;-92
2022/05/30 06:43:19;;;;;;;2.55;0.82;;;16.30;99.90;;;;;;5039153;28;20045;-94
2022/05/30 06:45:50;;;;;;;1.55;1.00;;;15.30;99.90;;;;;;5039436;28;20072;-93
2022/05/30 06:48:18;;;;;;;5.93;0.90;;;15.30;99.90;;;;;;5021465;28;20053;-92
2022/05/30 06:50:54;;;;;;;1.73;0.77;;;15.30;99.90;;;;;;5022668;28;20087;-93
2022/05/30 06:53:22;;;;;;;2.10;0.90;;;14.40;99.90;;;;;;5023851;28;20049;-93
2022/05/30 06:56:06;;;;;;;2.03;1.10;;;14.10;99.90;;;;;;5022261;28;20048;-93
2022/05/30 06:58:43;;;;;;;2.05;0.70;;;14.20;99.90;;;;;;5023873;28;20441;-93
2022/05/30 07:01:17;;;;;;;1.65;0.90;;;13.80;99.90;;;;;;5023182;28;20155;-93
2022/05/30 07:03:45;;;;;;;;;;;14.00;99.90;;;;;;5022322;28;20041;-92
2022/05/30 07:06:12;;;;;;;2.50;0.85;;;14.30;99.90;;;;;;5020583;28;19928;-92
2022/05/30 07:08:43;;;;;;;2.47;1.08;;;14.20;99.90;;;;;;5022012;28;20061;-93
2022/05/30 07:11:12;;;;;;;1.95;1.08;;;14.10;99.90;;;;;;5038254;28;20045;-93
2022/05/30 07:13:45;;;;;;;2.45;1.45;;;14.20;99.90;;;;;;5021526;28;20064;-93
2022/05/30 07:16:14;;;;;;;3.97;1.10;;;13.00;99.90;;;;;;5022369;28;20496;-93
2022/05/30 07:18:50;;;;;;;1.95;1.13;;;15.10;99.90;;;;;;5023236;28;20392;-92
2022/05/30 07:21:15;;;;;;;3.05;1.30;;;15.60;99.90;;;;;;5035174;28;20057;-91
2022/05/30 07:23:44;;;;;;;1.70;0.80;;;15.30;99.90;;;;;;5051127;28;20060;-92
2022/05/30 07:26:20;;;;;;;2.33;1.00;;;16.60;99.90;;;;;;5045577;28;20056;-92
2022/05/30 07:28:49;;;;;;;2.63;0.90;;;17.10;99.90;;;;;;5032295;28;20059;-92
2022/05/30 07:31:16;;;;;;;2.25;1.17;;;17.70;99.90;;;;;;5020976;28;20124;-92
2022/05/30 07:33:46;;;;;;;2.97;1.58;;;17.60;99.90;;;;;;5004631;28;20080;-92
2022/05/30 07:36:24;;;;;;;3.70;1.10;;;18.10;99.90;;;;;;5009593;28;20045;-92
2022/05/30 07:39:19;;;;;;;2.38;0.90;;;17.70;99.90;;;;;;5010795;28;20118;-94
2022/05/30 07:41:50;;;;;;;3.40;1.10;;;17.00;99.90;;;;;;5035362;28;20037;-92
2022/05/30 07:44:16;;;;;;;2.55;0.90;;;16.40;99.90;;;;;;5006052;28;20040;-93
2022/05/30 07:46:45;;;;;;;2.20;0.70;;;16.40;99.90;;;;;;5004581;28;20045;-91
2022/05/30 07:49:16;;;;;;;2.13;0.90;;;16.10;99.90;;;;;;5021762;28;20060;-93
2022/05/30 07:51:44;;;;;;;4.20;1.00;;;15.20;99.90;;;;;;5005348;28;20045;-93
2022/05/30 07:54:15;;;;;;;2.25;0.75;;;15.20;99.90;;;;;;5021040;28;20049;-93
2022/05/30 07:56:41;;;;;;;2.00;0.60;;;14.80;99.90;;;;;;5020570;28;20077;-93
2022/05/30 07:59:10;;;;;;;2.85;0.68;;;14.90;99.90;;;;;;5019262;28;20151;-95
2022/05/30 08:01:38;;;;;;;1.55;0.70;;;14.50;99.90;;;;;;5036591;28;20051;-92
2022/05/30 08:04:04;;;;;;;1.48;0.75;;;14.10;99.90;;;;;;5019973;28;20408;-90
2022/05/30 08:06:30;;;;;;;1.70;0.80;;;14.00;99.90;;;;;;5018660;28;20040;-92
2022/05/30 08:08:56;;;;;;;3.78;1.10;;;13.90;99.90;;;;;;5036115;28;20052;-93
2022/05/30 08:11:22;;;;;;;0.95;0.85;;;14.10;99.90;;;;;;5019991;28;20040;-94
2022/05/30 08:13:48;;;;;;;1.77;1.00;;;17.00;99.90;;;;;;5019487;28;20040;-92
2022/05/30 08:16:16;;;;;;;2.08;0.90;;;16.30;99.90;;;;;;5030971;28;20423;-88
2022/05/30 08:18:42;;;;;;;2.67;1.08;;;17.20;99.90;;;;;;5035218;28;20057;-88
2022/05/30 08:21:08;;;;;;;1.23;0.80;;;16.70;99.90;;;;;;5051966;28;20515;-90
2022/05/30 08:23:33;;;;;;;2.75;0.90;;;16.10;99.90;;;;;;5035388;28;20547;-88
2022/05/30 08:25:59;;;;;;;1.00;0.70;;;15.70;99.90;;;;;;5034872;28;20056;-89
2022/05/30 08:28:25;;;;;;;1.25;0.75;;;15.10;99.90;;;;;;5051499;28;20057;-88
2022/05/30 08:30:51;;;;;;;3.13;1.00;;;14.50;99.90;;;;;;5051869;28;20041;-89
2022/05/30 08:33:18;;;;;;;1.65;0.90;;;14.40;99.90;;;;;;5017522;28;20492;-89
2022/05/30 08:35:45;;;;;;;2.35;0.75;;;14.00;99.90;;;;;;5033789;28;20075;-88
2022/05/30 08:38:12;;;;;;;3.55;1.00;;;14.10;99.90;;;;;;5050404;28;20044;-91
2022/05/30 08:43:35;;;;;;;1.33;0.90;;;13.80;99.90;;;;;;5029928;28;20049;-90
2022/05/30 08:46:13;;;;;;;2.58;0.93;;;13.40;99.90;;;;;;5017236;28;20048;-91
2022/05/30 08:48:45;;;;;;;4.60;1.05;;;12.70;99.90;;;;;;5050405;28;20127;-88
2022/05/30 08:51:50;;;;;;;1.63;1.20;;;12.60;99.90;;;;;;5037692;28;20041;-90
2022/05/30 08:54:35;;;;;;;;;;;12.60;99.90;;;;;;5040068;28;20448;-93
2022/05/30 08:57:00;;;;;;;4.50;1.25;;;12.30;99.90;;;;;;5051730;28;19921;-89
2022/05/30 09:00:22;;;;;;;1.73;0.98;;;13.00;99.90;;;;;;5034923;28;20053;-89
2022/05/30 09:02:49;;;;;;;2.05;1.02;;;12.40;99.90;;;;;;4982251;28;20088;-88
2022/05/30 09:05:19;;;;;;;3.97;1.42;;;12.90;99.90;;;;;;5032915;28;20045;-88
2022/05/30 09:07:49;;;;;;;1.77;1.02;;;13.00;99.90;;;;;;5051731;28;20037;-90
2022/05/30 09:10:32;;;;;;;2.33;1.25;;;13.40;99.90;;;;;;5034129;28;20037;-89
2022/05/30 09:13:07;;;;;;;2.97;1.15;;;14.60;99.90;;;;;;5049256;28;20505;-92
2022/05/30 09:15:41;;;;;;;0.70;0.70;;;15.00;99.90;;;;;;5035127;28;20102;-86
2022/05/30 09:18:10;;;;;;;1.13;0.75;;;15.10;99.90;;;;;;5049457;28;20124;-93
2022/05/30 09:20:41;;;;;;;2.00;0.80;;;16.50;99.90;;;;;;5050936;28;20393;-91
2022/05/30 09:23:10;;;;;;;2.38;0.70;;;16.80;99.90;;;;;;5019414;28;20053;-93
2022/05/30 09:26:01;;;;;;;1.08;0.65;;;16.80;99.90;;;;;;5003769;28;20425;-92
2022/05/30 09:28:32;;;;;;;0.60;0.60;;;16.80;99.90;;;;;;5036291;28;20048;-93
2022/05/30 09:31:21;;;;;;;1.08;0.50;;;16.60;99.90;;;;;;5035120;28;20496;-92
2022/05/30 09:33:48;;;;;;;1.35;0.55;;;15.90;99.90;;;;;;5019719;28;20056;-92
2022/05/30 09:36:19;;;;;;;2.13;0.80;;;15.40;99.90;;;;;;5034493;28;20080;-91
2022/05/30 09:38:56;;;;;;;1.83;0.60;;;15.20;99.90;;;;;;5017797;28;20052;-92
2022/05/30 09:41:46;;;;;;;1.17;0.70;;;14.90;99.90;;;;;;5016319;28;20068;-95
2022/05/30 09:44:17;;;;;;;1.33;0.70;;;14.40;99.90;;;;;;5016806;28;20056;-91
2022/05/30 09:46:53;;;;;;;2.63;0.73;;;13.80;99.90;;;;;;5033632;28;20072;-92
2022/05/30 09:49:21;;;;;;;4.22;1.33;;;13.40;99.90;;;;;;5028521;28;20041;-91
2022/05/30 09:52:00;;;;;;;2.60;0.60;;;13.30;99.90;;;;;;5033644;28;20052;-92
2022/05/30 09:54:26;;;;;;;2.90;0.70;;;12.90;99.90;;;;;;5034384;28;20396;-91
2022/05/30 09:56:53;;;;;;;2.08;0.70;;;12.60;99.90;;;;;;5047770;28;20044;-92
2022/05/30 09:59:42;;;;;;;1.67;0.82;;;12.60;99.90;;;;;;5020808;28;20105;-91
2022/05/30 10:02:27;;;;;;;3.38;0.80;;;12.60;99.90;;;;;;5014101;28;20061;-90
2022/05/30 10:04:55;;;;;;;3.10;0.90;;;12.80;99.90;;;;;;5013760;28;20080;-88
2022/05/30 10:07:21;;;;;;;1.05;0.70;;;12.80;99.90;;;;;;5013536;28;20145;-88
2022/05/30 10:09:55;;;;;;;1.95;0.90;;;12.50;99.90;;;;;;5014451;28;20143;-93
2022/05/30 10:12:29;;;;;;;1.70;0.82;;;12.40;99.90;;;;;;5002327;28;20049;-90
2022/05/30 10:14:55;;;;;;;1.70;1.10;;;12.50;99.90;;;;;;5015973;28;20547;-90
2022/05/30 10:17:32;;;;;;;1.13;0.70;;;12.70;99.90;;;;;;5032326;28;20033;-90
2022/05/30 10:19:57;;;;;;;1.27;0.73;;;12.70;99.90;;;;;;5014512;28;20053;-90
2022/05/30 10:28:49;;;;;;;2.65;0.90;;;12.60;99.90;;;;;;5039948;28;20045;-88
2022/05/30 10:31:46;;;;;;;1.27;0.70;;;12.40;99.90;;;;;;5018934;28;20037;-89
2022/05/30 10:34:18;;;;;;;1.50;0.77;;;12.60;99.90;;;;;;5036622;28;20064;-88
2022/05/30 10:37:05;;;;;;;0.60;0.60;;;12.70;99.90;;;;;;5053026;28;20041;-92
2022/05/30 10:39:56;;;;;;;0.77;0.63;;;12.80;99.90;;;;;;5034342;28;20045;-88
2022/05/30 10:42:37;;;;;;;1.15;0.70;;;12.80;99.90;;;;;;5038224;28;20041;-91
2022/05/30 10:45:27;;;;;;;1.65;0.60;;;11.40;99.90;;;;;;5043557;28;20041;-90
2022/05/30 10:47:53;;;;;;;0.95;0.65;;;13.10;99.90;;;;;;5024232;28;20121;-91
2022/05/30 10:50:58;;;;;;;0.47;0.47;;;13.30;99.90;;;;;;5040069;28;20566;-90
2022/05/30 10:53:28;;;;;;;0.40;0.40;;;13.40;99.90;;;;;;4985057;28;20047;-89
2022/05/30 10:55:55;;;;;;;0.80;0.50;;;13.50;99.90;;;;;;5029827;28;20045;-91
2022/05/30 10:58:41;;;;;;;0.43;0.43;;;13.70;99.90;;;;;;5023141;28;20369;-91
2022/05/30 11:01:29;;;;;;;0.47;0.40;;;13.80;99.90;;;;;;5022452;28;20482;-89
2022/05/30 11:04:24;;;;;;;0.40;0.40;;;14.10;99.90;;;;;;5026493;28;20057;-90
2022/05/30 11:06:50;;;;;;;0.60;0.60;;;13.90;99.90;;;;;;5040563;28;20057;-90
2022/05/30 11:09:24;;;;;;;0.55;0.40;;;13.90;99.90;;;;;;5039311;28;20053;-87
2022/05/30 11:12:23;;;;;;;0.50;0.50;;;14.30;99.90;;;;;;5042956;28;20530;-93
2022/05/30 11:15:26;;;;;;;0.50;0.50;;;14.70;99.90;;;;;;5050348;28;20042;-91
2022/05/30 11:18:14;;;;;;;0.60;0.60;;;14.30;99.90;;;;;;5043749;28;20048;-94
2022/05/30 11:20:55;;;;;;;0.40;0.40;;;14.30;99.90;;;;;;5025251;28;20053;-91
2022/05/30 11:23:20;;;;;;;2.22;0.60;;;14.20;99.90;;;;;;5041609;28;20408;-90
2022/05/30 11:26:14;;;;;;;1.52;0.68;;;14.40;99.90;;;;;;5035940;28;20052;-88
2022/05/30 11:29:05;;;;;;;0.50;0.47;;;14.70;99.90;;;;;;5016285;28;20515;-88
2022/05/30 11:31:53;;;;;;;0.75;0.60;;;14.50;99.90;;;;;;5032886;28;20516;-89
2022/05/30 11:34:37;;;;;;;2.25;0.50;;;14.30;99.90;;;;;;5023781;28;20045;-92
2022/05/30 11:37:24;;;;;;;1.83;0.68;;;16.00;99.90;;;;;;5035737;28;20507;-93
2022/05/30 11:40:10;;;;;;;1.50;0.70;;;14.80;99.90;;;;;;5050098;28;20105;-90
2022/05/30 11:42:45;;;;;;;1.42;0.70;;;15.00;99.90;;;;;;5032598;28;20418;-91
2022/05/30 11:45:16;;;;;;;1.45;0.70;;;15.30;99.90;;;;;;5036370;28;20048;-93
2022/05/30 11:47:46;;;;;;;1.52;0.70;;;14.50;99.90;;;;;;5053071;28;20048;-93
2022/05/30 11:50:34;;;;;;;1.83;0.73;;;14.10;99.90;;;;;;5019745;28;20126;-92
2022/05/30 11:53:21;;;;;;;1.20;0.90;;;14.10;99.90;;;;;;5019933;28;20599;-92
2022/05/30 11:55:51;;;;;;;;;;;14.10;99.90;;;;;;5035602;28;20102;-92
2022/05/30 11:58:25;;;;;;;1.88;0.80;;;13.90;99.90;;;;;;5018986;28;20305;-92
2022/05/30 12:00:52;;;;;;;2.00;0.90;;;13.90;99.90;;;;;;5018364;28;20047;-92
2022/05/30 12:03:55;;;;;;;2.45;0.80;;;13.50;99.90;;;;;;5018625;28;20059;-90
2022/05/30 12:06:42;;;;;;;2.97;0.60;;;13.30;99.90;;;;;;5051235;28;20053;-92
2022/05/30 12:09:42;;;;;;;1.17;0.63;;;12.90;99.90;;;;;;5035081;28;20079;-93
2022/05/30 12:12:24;;;;;;;1.00;0.73;;;12.80;99.90;;;;;;5035055;28;20551;-92
2022/05/30 12:15:29;;;;;;;1.83;0.60;;;12.60;99.90;;;;;;5035377;28;20049;-93
2022/05/30 12:24:21;;;;;;;6.00;2.08;;;12.50;99.90;;;;;;5048766;28;20057;-92
2022/05/30 12:26:52;;;;;;;0.60;0.60;;;12.50;99.90;;;;;;5047265;28;20067;-92
2022/05/30 12:29:43;;;;;;;0.85;0.60;;;12.50;99.90;;;;;;5053639;28;20097;-88
2022/05/30 12:32:12;;;;;;;1.25;1.00;;;12.50;99.90;;;;;;5031185;28;20057;-89
2022/05/30 12:35:00;;;;;;;2.05;0.60;;;12.80;99.90;;;;;;5025943;28;20060;-90
2022/05/30 12:37:44;;;;;;;0.57;0.57;;;12.60;99.90;;;;;;5038958;28;20052;-88
2022/05/30 12:40:30;;;;;;;1.30;0.98;;;12.60;99.90;;;;;;5041722;28;20049;-88
2022/05/30 12:43:22;;;;;;;2.53;0.75;;;12.60;99.90;;;;;;5036883;28;20051;-88
2022/05/30 12:45:57;;;;;;;0.85;0.60;;;14.00;99.90;;;;;;5035509;28;20174;-88
2022/05/30 12:48:34;;;;;;;0.73;0.70;;;12.90;99.90;;;;;;5047286;28;20041;-88
2022/05/30 12:51:24;;;;;;;0.82;0.70;;;13.10;99.90;;;;;;5032898;28;20045;-87
2022/05/30 12:53:57;;;;;;;0.90;0.60;;;13.20;99.90;;;;;;5014440;28;20150;-87
2022/05/30 12:56:38;;;;;;;2.17;0.57;;;13.60;99.90;;;;;;5048960;28;20045;-86
2022/05/30 12:59:04;;;;;;;1.80;0.52;;;13.60;99.90;;;;;;5048295;28;20055;-88
2022/05/30 13:01:49;;;;;;;0.50;0.50;;;13.90;99.90;;;;;;5049071;28;20057;-86
2022/05/30 13:04:26;;;;;;;0.88;0.50;;;13.90;99.90;;;;;;5049043;28;20504;-88
2022/05/30 13:06:58;;;;;;;1.45;0.60;;;14.10;99.90;;;;;;5030260;28;20088;-89
2022/05/30 13:09:37;;;;;;;1.38;0.60;;;14.50;99.90;;;;;;5048603;28;20049;-89
2022/05/30 13:12:10;;;;;;;1.58;0.80;;;14.70;99.90;;;;;;5014283;28;20492;-88
2022/05/30 13:15:00;;;;;;;1.50;0.60;;;14.30;99.90;;;;;;5033453;28;20045;-90
2022/05/30 13:17:51;;;;;;;1.15;0.70;;;14.80;99.90;;;;;;5049194;28;20047;-88
2022/05/30 13:20:29;;;;;;;1.67;0.52;;;14.90;99.90;;;;;;5032667;28;20049;-86
2022/05/30 13:23:00;;;;;;;1.33;0.70;;;14.90;99.90;;;;;;5048121;28;20049;-88
2022/05/30 13:25:33;;;;;;;2.17;0.90;;;15.30;99.90;;;;;;5032620;28;20045;-90
2022/05/30 13:28:36;;;;;;;1.55;0.70;;;15.40;99.90;;;;;;5034036;28;20088;-92
2022/05/30 13:31:06;;;;;;;0.98;0.55;;;15.60;99.90;;;;;;5009168;28;20549;-92
2022/05/30 13:33:39;;;;;;;1.90;0.77;;;15.80;99.90;;;;;;5017429;28;20041;-90
2022/05/30 13:36:06;;;;;;;1.48;0.88;;;16.10;99.90;;;;;;5029796;28;20118;-91
2022/05/30 13:38:40;;;;;;;0.75;0.55;;;16.00;99.90;;;;;;5016342;28;20063;-90
2022/05/30 13:41:22;;;;;;;0.95;0.60;;;15.80;99.90;;;;;;5050131;28;20499;-91